This is the latest recevied weather packets stored in our database for station/object GW1468. If no packets are shown the sender has not sent any weather packets the latest 10 day(s).
| Time | Temp. | Humidity | Pressure | Rain* | Wind** | Luminosity | Snow |
|---|---|---|---|---|---|---|---|
| 1777923576 | 22.22° C | 48% | - | 0.76 mm | - | - | - |
| 1777922842 | 22.22° C | 49% | - | 0.76 mm | - | - | - |
| 1777921789 | 22.22° C | 48% | - | 0.76 mm | - | - | - |
| 1777921053 | 21.67° C | 49% | - | 0.76 mm | - | - | - |
| 1777920335 | 21.11° C | 54% | - | 0.76 mm | - | - | - |
| 1777917800 | 20.56° C | 56% | - | 0.76 mm | - | - | - |
| 1777917468 | 20° C | 59% | - | 0.76 mm | - | - | - |
| 1777915633 | 19.44° C | 61% | - | 0.76 mm | - | - | - |
| 1777913498 | 18.33° C | 64% | - | 0.76 mm | - | - | - |
| 1777911690 | 17.22° C | 66% | - | 0.76 mm | - | - | - |
| 1777911312 | 17.78° C | 65% | - | 0.76 mm | - | - | - |
| 1777910082 | 17.22° C | 70% | - | 0.76 mm | - | - | - |
| 1777908269 | 15° C | 74% | - | 0.76 mm | - | - | - |
| 1777907533 | 15° C | 76% | - | 0.76 mm | - | - | - |
| 1777906483 | 13.89° C | 79% | - | 0.76 mm | - | - | - |
| 1777903613 | 10.56° C | 88% | - | 0.76 mm | - | - | - |
| 1777902870 | 9.44° C | 95% | - | 0.76 mm | - | - | - |
| 1777902163 | 8.33° C | 97% | - | 0.76 mm | - | - | - |
| 1777898905 | 7.78° C | 87% | - | 0 mm | - | - | - |
| 1777896405 | 6.67° C | 88% | - | 0 mm | - | - | - |
| 1777895323 | 5.56° C | 92% | - | 0 mm | - | - | - |
| 1777892430 | 5° C | 94% | - | 0 mm | - | - | - |
| 1777888488 | 5° C | 92% | - | 0 mm | - | - | - |
| 1777888097 | 5° C | 92% | - | 0 mm | - | - | - |
| 1777885574 | 5° C | 90% | - | 0 mm | - | - | - |
* Rain since midnight (hover to see other rain measurements)
** Current wind speed in m/s (hover to see current wind gust speed)